»·PEaware :: WAT380 KTRK-KLAS

WAT380 :: KTRK-KLAS

FLIGHT INFORMATION

Flight Status: Arrived
Operator:
Walker Air Transport
More flights by this operator :: More flights under this callsign
Pilot: Spencer M. (27733)
Aircraft: CESSNA 550 CITATION 2/S2/BRAVO
(C550)
More flights by this aircraft type
Origin: KTRK Truckee-Tahoe
United States
Destination: KLAS McCarran Intl
United States
More flights between these airports :: More routes between these airports
Route: TAHOE1 FMG J92 OAL TACUS SUNST4
File this flight plan on PilotEdge
Remarks:
Altitude:
(Current/Filed)
25,000ft
Speed:
(Current/Filed)
370kts
Departed: 05-Jan-21 08:09 PM
Arrived: 05-Jan-21 09:20 PM
Distance/Time
Traveled:
306nm/1:11
Distance/Time
To Go:
Arrived

Flight Plot

Page will automatically refresh every two minutes.

Flight plan parsing failed; only flown route is shown


Map Options




Map Legend


Flown Route
Filed Route
Departure Airport
Arrival Airport
Navaid (VOR, NDB)
Fix

Horizontal Profiles

Position Reports

Time Latitude Longitude Heading Altitude Ground
Speed
05-Jan-21 19:48 39.318272 -120.141730 210 5904ft 0kts
05-Jan-21 19:49 39.318272 -120.141730 210 5904ft 0kts
05-Jan-21 19:50 39.318272 -120.141730 210 5904ft 0kts
05-Jan-21 19:51 39.318272 -120.141730 210 5904ft 0kts
05-Jan-21 19:52 39.318272 -120.141730 210 5904ft 0kts
05-Jan-21 19:53 39.318272 -120.141730 210 5904ft 0kts
05-Jan-21 19:54 39.318272 -120.141730 210 5904ft 0kts
05-Jan-21 19:55 39.318272 -120.141730 210 5904ft 0kts
05-Jan-21 19:56 39.318272 -120.141730 210 5904ft 0kts
05-Jan-21 19:57 39.318272 -120.141730 210 5904ft 0kts
05-Jan-21 19:58 39.318272 -120.141730 210 5904ft 0kts
05-Jan-21 19:59 39.318272 -120.141730 210 5904ft 0kts
05-Jan-21 20:00 39.318272 -120.141730 210 5904ft 0kts
05-Jan-21 20:01 39.318268 -120.141733 209 5904ft 0kts
05-Jan-21 20:02 39.317834 -120.140748 72 5904ft 5kts
05-Jan-21 20:03 39.317308 -120.139138 120 5904ft 7kts
05-Jan-21 20:04 39.315305 -120.140161 210 5904ft 7kts
05-Jan-21 20:05 39.314824 -120.140381 159 5904ft 0kts
05-Jan-21 20:06 39.314824 -120.140381 159 5904ft 0kts
05-Jan-21 20:07 39.314931 -120.139675 30 5904ft 12kts
05-Jan-21 20:08 39.342679 -120.123042 3 7617ft 162kts
05-Jan-21 20:09 39.395813 -120.121047 2 10657ft 212kts
05-Jan-21 20:10 39.455324 -120.115967 355 13622ft 218kts
05-Jan-21 20:11 39.510601 -120.142143 333 16418ft 212kts
05-Jan-21 20:12 39.531842 -120.097332 132 18947ft 195kts
05-Jan-21 20:13 39.495669 -120.045693 134 21046ft 196kts
05-Jan-21 20:14 39.461325 -119.990278 134 22827ft 207kts
05-Jan-21 20:15 39.423167 -119.930011 133 24345ft 226kts
05-Jan-21 20:16 39.381242 -119.864135 133 25359ft 261kts
05-Jan-21 20:17 39.329789 -119.783411 132 25360ft 316kts
05-Jan-21 20:18 39.270823 -119.691055 131 25358ft 348kts
05-Jan-21 20:19 39.207489 -119.592211 131 25358ft 365kts
05-Jan-21 20:20 39.142151 -119.490586 131 25358ft 373kts
05-Jan-21 20:21 39.075514 -119.387256 131 25358ft 376kts
05-Jan-21 20:22 39.008474 -119.283694 132 25355ft 378kts
05-Jan-21 20:23 38.940990 -119.179798 132 25355ft 379kts
05-Jan-21 20:24 38.873336 -119.075978 132 25357ft 379kts
05-Jan-21 20:25 38.805685 -118.972501 132 25357ft 380kts
05-Jan-21 20:26 38.737721 -118.868891 132 25357ft 380kts
05-Jan-21 20:27 38.669649 -118.765445 131 25357ft 380kts
05-Jan-21 20:28 38.601548 -118.662297 131 25357ft 380kts
05-Jan-21 20:29 38.533352 -118.559335 131 25358ft 380kts
05-Jan-21 20:30 38.464932 -118.456370 131 25358ft 380kts
05-Jan-21 20:31 38.396422 -118.353601 131 25358ft 380kts
05-Jan-21 20:32 38.327926 -118.251183 132 25352ft 380kts
05-Jan-21 20:33 38.259300 -118.148897 132 25348ft 380kts
05-Jan-21 20:34 38.190642 -118.046886 132 25347ft 380kts
05-Jan-21 20:35 38.121838 -117.944986 132 25347ft 380kts
05-Jan-21 20:36 38.053049 -117.843424 132 25347ft 380kts
05-Jan-21 20:37 37.979925 -117.747912 144 25347ft 377kts
05-Jan-21 20:38 37.896197 -117.667305 144 25346ft 378kts
05-Jan-21 20:39 37.812399 -117.587122 144 25332ft 379kts
05-Jan-21 20:40 37.728380 -117.506947 144 25321ft 380kts
05-Jan-21 20:41 37.644078 -117.426719 144 25321ft 380kts
05-Jan-21 20:42 37.559369 -117.346335 145 25321ft 381kts
05-Jan-21 20:43 37.474643 -117.266170 145 25319ft 382kts
05-Jan-21 20:44 37.389331 -117.185690 145 25319ft 383kts
05-Jan-21 20:45 37.303967 -117.105393 144 25320ft 384kts
05-Jan-21 20:46 37.218513 -117.025247 145 25316ft 385kts
05-Jan-21 20:47 37.132416 -116.944733 144 25301ft 387kts
05-Jan-21 20:48 37.045038 -116.866365 148 25294ft 387kts
05-Jan-21 20:49 36.955456 -116.792237 147 25294ft 388kts
05-Jan-21 20:50 36.866942 -116.718410 147 24581ft 365kts
05-Jan-21 20:51 36.790388 -116.649288 139 24290ft 315kts
05-Jan-21 20:52 36.728356 -116.576820 137 24294ft 312kts
05-Jan-21 20:53 36.662661 -116.499873 137 24295ft 334kts
05-Jan-21 20:54 36.595051 -116.420914 137 24291ft 329kts
05-Jan-21 20:55 36.528947 -116.343938 138 24071ft 327kts
05-Jan-21 20:56 36.464601 -116.268648 136 22562ft 311kts
05-Jan-21 20:57 36.407603 -116.190134 132 21052ft 301kts
05-Jan-21 20:58 36.352811 -116.113045 133 19484ft 294kts
05-Jan-21 20:59 36.300476 -116.039661 133 17523ft 276kts
05-Jan-21 21:01 36.250917 -115.970360 132 15999ft 257kts
05-Jan-21 21:02 36.204798 -115.904919 125 15927ft 261kts
05-Jan-21 21:03 36.175520 -115.822489 110 14040ft 259kts
05-Jan-21 21:04 36.149439 -115.740814 109 12250ft 250kts
05-Jan-21 21:05 36.124142 -115.662264 109 11096ft 245kts
05-Jan-21 21:06 36.099931 -115.587440 109 10988ft 211kts
05-Jan-21 21:07 36.079384 -115.525491 108 10992ft 187kts
05-Jan-21 21:08 36.059974 -115.464865 108 10993ft 192kts
05-Jan-21 21:09 36.040114 -115.402821 108 10993ft 196kts
05-Jan-21 21:10 36.029747 -115.336392 92 10089ft 196kts
05-Jan-21 21:11 36.025536 -115.271221 93 8996ft 176kts
05-Jan-21 21:12 36.020002 -115.216561 94 8993ft 159kts
05-Jan-21 21:13 36.029888 -115.163064 43 8189ft 180kts
05-Jan-21 21:13 36.061554 -115.127613 40 7356ft 184kts
05-Jan-21 21:15 36.106279 -115.085936 21 6624ft 172kts
05-Jan-21 21:16 36.149101 -115.078792 337 5820ft 152kts
05-Jan-21 21:17 36.162564 -115.118996 241 4453ft 132kts
05-Jan-21 21:17 36.138024 -115.134944 201 3274ft 113kts
05-Jan-21 21:18 36.112173 -115.149238 203 2577ft 96kts
05-Jan-21 21:20 36.087797 -115.163255 206 2186ft 25kts
05-Jan-21 21:20 36.084352 -115.165758 226 2186ft 9kts
05-Jan-21 21:21 36.082753 -115.167704 235 2186ft 10kts
05-Jan-21 21:22 36.081305 -115.169352 204 2186ft 12kts
05-Jan-21 21:23 36.080622 -115.170998 295 2186ft 0kts

Navigation Log

Ident Type
Flight plan parsing failed, navigation log unavailable